Long Lake, Indiana
Current Conditions -  °F | °C
As of 6:15 AM on Thursday 23 Oct 2014 (Local Time) from KANQ Reporting Station
Overcast Overcast  
Wind Chill: 28°   Ceiling: 100
Heat Index: 28°   Visibility: 0.25mi
Dew Point: 10°   Wind: 0mph
Humidity: 47%   Direction: NA
Pressure: 30.25"   Gusts: NA
Location:  41.7284°N, 84.9169°W
Report Text: KANQ 231015Z AUTO 00000KT 1/4SM OVC001 M02/M12 A3025 RMK
Loading
Personal Weather Stations






























Interactive Weather Map
Tropical Storm Tracking
New forecast layout! Learn more

10-Day Weather Forecast

Advertisements
Track Severe Weather on mobile